Time;durP1;ratioP1;P1;durP2;ratioP2;P2;SDS_P1;SDS_P2;PMS_P1;PMS_P2;Temp;Humidity;BMP_temperature;BMP_pressure;BME280_temperature;BME280_humidity;BME280_pressure;Samples;Min_cycle;Max_cycle;Signal;HPM_P1;HPM_P2
2023/11/05 04:37:45;;;;;;;;;;;;;;;;;;4883361;28;20452;-54
2023/11/05 04:40:11;;;;;;;;;;;;;;;;;;4733714;28;20388;-45
2023/11/05 04:42:38;;;;;;;;;;;;;;;;;;4934294;28;19931;-46
2023/11/05 04:45:04;;;;;;;;;;;;;;;;;;4930416;28;20717;-47
2023/11/05 04:47:30;;;;;;;;;;;;;;;;;;4994301;28;19976;-48
2023/11/05 04:49:56;;;;;;;;;;;;;;;;;;4983786;28;20654;-47
2023/11/05 04:52:23;;;;;;;;;;;;;;;;;;4984573;28;19922;-48
2023/11/05 04:54:49;;;;;;;;;;;;;;;;;;4983846;28;19921;-47
2023/11/05 04:57:15;;;;;;;;;;;;;;;;;;4983379;28;19925;-50
2023/11/05 04:59:44;;;;;;;;;;;;;;;;;;4985225;28;19968;-48
2023/11/05 05:02:11;;;;;;;;;;;;;;;;;;5003540;28;19952;-49
2023/11/05 05:04:37;;;;;;;;;;;;;;;;;;5003510;28;19925;-46
2023/11/05 05:07:03;;;;;;;;;;;;;;;;;;5004135;28;19933;-45
2023/11/05 05:09:30;;;;;;;;;;;;;;;;;;5002067;28;19926;-46
2023/11/05 05:11:57;;;;;;;;;;;;;;;;;;5002841;28;19925;-50
2023/11/05 05:14:25;;;;;;;;;;;;;;;;;;5003478;28;20293;-45
2023/11/05 05:16:53;;;;;;;;;;;;;;;;;;5002810;28;19928;-46
2023/11/05 05:19:19;;;;;;;;;;;;;;;;;;5002026;28;19925;-49
2023/11/05 05:21:45;;;;;;;;;;;;;;;;;;5001491;28;20727;-45
2023/11/05 05:24:12;;;;;;;;;;;;;;;;;;5003651;28;20329;-45
2023/11/05 05:26:38;;;;;;;;;;;;;;;;;;5001979;28;20520;-47
2023/11/05 05:29:04;;;;;;;;;;;;;;;;;;5002598;28;19925;-46
2023/11/05 05:31:30;;;;;;;;;;;;;;;;;;5002619;28;19928;-46
2023/11/05 05:33:57;;;;;;;;;;;;;;;;;;5003127;28;20243;-46
2023/11/05 05:36:24;;;;;;;;;;;;;;;;;;5001494;28;19933;-45
2023/11/05 05:38:50;;;;;;;;;;;;;;;;;;5002662;28;19957;-45
2023/11/05 05:41:17;;;;;;;;;;;;;;;;;;5002391;28;20181;-44
2023/11/05 05:43:43;;;;;;;;;;;;;;;;;;5003039;28;19925;-47
2023/11/05 05:46:09;;;;;;;;;;;;;;;;;;5001784;28;20306;-46
2023/11/05 05:48:37;;;;;;;;;;;;;;;;;;4990590;28;19932;-45
2023/11/05 05:51:03;;;;;;;;;;;;;;;;;;4989302;28;21356;-47
2023/11/05 05:53:30;;;;;;;;;;;;;;;;;;4988672;28;19922;-45
2023/11/05 05:55:56;;;;;;;;;;;;;;;;;;4989103;28;19921;-47
2023/11/05 05:58:23;;;;;;;;;;;;;;;;;;4987634;28;20515;-46
2023/11/05 06:00:49;;;;;;;;;;;;;;;;;;4989825;28;19925;-46
2023/11/05 06:03:15;;;;;;;;;;;;;;;;;;4989657;28;19921;-45
2023/11/05 06:05:41;;;;;;;;;;;;;;;;;;4988218;28;19930;-48
2023/11/05 06:08:08;;;;;;;;;;;;;;;;;;4987363;28;19980;-45
2023/11/05 06:10:34;;;;;;;;;;;;;;;;;;4988188;28;20691;-45
2023/11/05 06:13:00;;;;;;;;;;;;;;;;;;4988784;28;19949;-45
2023/11/05 06:15:26;;;;;;;;;;;;;;;;;;4989085;28;19976;-48
2023/11/05 06:17:53;;;;;;;;;;;;;;;;;;4988066;28;19925;-45
2023/11/05 06:20:19;;;;;;;;;;;;;;;;;;4990606;28;19918;-47
2023/11/05 06:22:45;;;;;;;;;;;;;;;;;;4988639;28;19929;-50
2023/11/05 06:25:11;;;;;;;;;;;;;;;;;;4989856;28;20457;-52
2023/11/05 06:27:38;;;;;;;;;;;;;;;;;;4988186;28;19969;-54
2023/11/05 06:30:05;;;;;;;;;;;;;;;;;;4988405;28;19926;-50
2023/11/05 06:32:32;;;;;;;;;;;;;;;;;;4988216;28;19925;-47
2023/11/05 06:34:58;;;;;;;;;;;;;;;;;;4989003;28;20405;-47
2023/11/05 06:37:25;;;;;;;;;;;;;;;;;;4989337;28;20711;-50
2023/11/05 06:39:51;;;;;;;;;;;;;;;;;;4988260;28;19944;-52
2023/11/05 06:42:17;;;;;;;;;;;;;;;;;;4988071;28;19926;-49
2023/11/05 06:44:44;;;;;;;;;;;;;;;;;;4987813;28;20581;-46
2023/11/05 06:47:10;;;;;;;;;;;;;;;;;;4988641;28;20313;-48
2023/11/05 06:49:36;;;;;;;;;;;;;;;;;;4988111;28;19972;-48
2023/11/05 06:52:03;;;;;;;;;;;;;;;;;;4988449;28;20152;-47
2023/11/05 06:54:29;;;;;;;;;;;;;;;;;;4987751;28;20461;-48
2023/11/05 06:56:55;;;;;;;;;;;;;;;;;;4987748;28;19926;-46
2023/11/05 06:59:21;;;;;;;;;;;;;;;;;;4986865;28;20027;-51
2023/11/05 07:01:48;;;;;;;;;;;;;;;;;;4987338;28;19922;-49
2023/11/05 07:04:14;;;;;;;;;;;;;;;;;;4988524;28;19960;-49
2023/11/05 07:06:40;;;;;;;;;;;;;;;;;;4987080;28;19996;-47
2023/11/05 07:09:08;;;;;;;;;;;;;;;;;;4987652;28;19932;-47
2023/11/05 07:11:34;;;;;;;;;;;;;;;;;;4987536;28;19925;-47
2023/11/05 07:14:00;;;;;;;;;;;;;;;;;;4988355;28;20430;-48
2023/11/05 07:16:27;;;;;;;;;;;;;;;;;;4987403;28;19925;-44
2023/11/05 07:18:53;;;;;;;;;;;;;;;;;;4987836;28;20348;-49
2023/11/05 07:21:19;;;;;;;;;;;;;;;;;;4987779;28;19928;-49
2023/11/05 07:23:47;;;;;;;;;;;;;;;;;;4986759;28;19925;-46
2023/11/05 07:26:13;;;;;;;;;;;;;;;;;;4987152;28;19934;-48
2023/11/05 07:28:39;;;;;;;;;;;;;;;;;;4986659;28;19926;-47
2023/11/05 07:31:06;;;;;;;;;;;;;;;;;;4987811;28;19925;-49
2023/11/05 07:33:32;;;;;;;;;;;;;;;;;;4987278;28;19960;-45
2023/11/05 07:35:59;;;;;;;;;;;;;;;;;;4987882;28;20310;-46
2023/11/05 07:38:26;;;;;;;;;;;;;;;;;;4986196;28;19926;-46
2023/11/05 07:40:52;;;;;;;;;;;;;;;;;;4987637;28;19925;-47
2023/11/05 07:43:18;;;;;;;;;;;;;;;;;;4986800;28;20019;-47
2023/11/05 07:45:44;;;;;;;;;;;;;;;;;;4986727;28;19933;-52
